createdAt,value
2019-03-23T00:00:22.782Z,99.99
2019-03-23T00:01:22.751Z,99.99
2019-03-23T00:02:22.722Z,99.99
2019-03-23T00:03:22.693Z,99.99
2019-03-23T00:04:22.662Z,99.99
2019-03-23T00:05:22.632Z,99.99
2019-03-23T00:06:30.453Z,99.99
2019-03-23T00:07:22.576Z,99.99
2019-03-23T00:08:22.545Z,99.99
2019-03-23T00:09:22.517Z,99.99
2019-03-23T00:10:22.484Z,99.99
2019-03-23T00:11:22.455Z,99.99
2019-03-23T00:12:22.426Z,99.99
2019-03-23T00:13:22.395Z,99.99
2019-03-23T00:14:22.366Z,99.99
2019-03-23T00:15:22.337Z,99.99
2019-03-23T00:16:22.306Z,99.99
2019-03-23T00:17:22.278Z,99.99
2019-03-23T00:18:22.247Z,99.99
2019-03-23T00:19:22.219Z,99.99
2019-03-23T00:20:22.190Z,99.99
2019-03-23T00:21:22.158Z,99.99
2019-03-23T00:22:22.127Z,99.99
2019-03-23T00:23:22.101Z,99.99
2019-03-23T00:24:22.068Z,99.99
2019-03-23T00:25:22.039Z,99.99
2019-03-23T00:26:22.008Z,99.99
2019-03-23T00:27:21.980Z,99.99
2019-03-23T00:28:21.950Z,99.99
2019-03-23T00:29:21.919Z,99.99
2019-03-23T00:30:21.889Z,99.99
2019-03-23T00:31:21.862Z,99.99
2019-03-23T00:32:21.830Z,99.99
2019-03-23T00:33:21.799Z,99.99
2019-03-23T00:34:21.769Z,99.99
2019-03-23T00:35:21.742Z,99.99
2019-03-23T00:36:21.710Z,99.99
2019-03-23T00:37:21.681Z,99.99
2019-03-23T00:38:21.650Z,99.99
2019-03-23T00:39:21.618Z,99.99
2019-03-23T00:40:21.590Z,99.99
2019-03-23T00:41:21.560Z,99.99
2019-03-23T00:42:21.530Z,99.99
2019-03-23T00:43:21.501Z,99.99
2019-03-23T00:44:21.470Z,99.99
2019-03-23T00:45:21.441Z,99.99
2019-03-23T00:46:21.409Z,99.99
2019-03-23T00:47:21.381Z,99.99
2019-03-23T00:48:21.354Z,99.99
2019-03-23T00:49:21.319Z,99.99
2019-03-23T00:50:21.289Z,99.99
2019-03-23T00:51:21.261Z,99.99
2019-03-23T00:52:21.230Z,99.99
2019-03-23T00:53:21.200Z,99.99
2019-03-23T00:54:21.169Z,99.99
2019-03-23T00:55:21.141Z,99.99
2019-03-23T00:56:21.110Z,99.99
2019-03-23T00:57:21.082Z,99.99
2019-03-23T00:58:21.049Z,99.99
2019-03-23T00:59:21.019Z,99.99
2019-03-23T01:00:20.990Z,99.99
2019-03-23T01:01:20.958Z,99.99
2019-03-23T01:02:20.928Z,99.99
2019-03-23T01:03:20.898Z,99.99
2019-03-23T01:04:20.870Z,99.99
2019-03-23T01:05:20.838Z,99.99
2019-03-23T01:06:20.808Z,99.99
2019-03-23T01:07:20.778Z,99.99
2019-03-23T01:08:20.748Z,99.99
2019-03-23T01:09:20.717Z,99.99
2019-03-23T01:10:20.687Z,99.99
2019-03-23T01:11:20.656Z,99.99
2019-03-23T01:12:20.628Z,99.99
2019-03-23T01:13:20.597Z,99.99
2019-03-23T01:14:20.566Z,99.99
2019-03-23T01:15:20.536Z,99.99
2019-03-23T01:16:20.506Z,99.99
2019-03-23T01:17:20.477Z,99.99
2019-03-23T01:18:20.445Z,99.99
2019-03-23T01:19:20.416Z,99.99
2019-03-23T01:20:20.384Z,99.99
2019-03-23T01:21:20.354Z,99.99
2019-03-23T01:22:20.323Z,99.99
2019-03-23T01:23:20.294Z,99.99
2019-03-23T01:24:20.265Z,99.99
2019-03-23T01:25:20.945Z,99.99
2019-03-23T01:26:20.203Z,99.99
2019-03-23T01:27:20.173Z,99.99
2019-03-23T01:28:20.143Z,99.99
2019-03-23T01:29:20.111Z,99.99
2019-03-23T01:30:20.081Z,99.99
2019-03-23T01:31:20.051Z,99.99
2019-03-23T01:32:20.023Z,99.99
2019-03-23T01:33:19.991Z,99.99
2019-03-23T01:34:19.962Z,99.99
2019-03-23T01:35:19.929Z,99.99
2019-03-23T01:36:19.900Z,99.99
2019-03-23T01:37:19.873Z,99.99
2019-03-23T01:38:19.837Z,99.99
2019-03-23T01:39:19.808Z,99.99
2019-03-23T01:40:19.778Z,99.99
2019-03-23T01:41:19.750Z,99.99
2019-03-23T01:42:19.718Z,99.99
2019-03-23T01:43:19.688Z,99.99
2019-03-23T01:44:19.658Z,99.99
2019-03-23T01:45:19.633Z,99.99
2019-03-23T01:46:19.596Z,99.99
2019-03-23T01:47:19.565Z,99.99
2019-03-23T01:48:19.539Z,99.99
2019-03-23T01:49:19.505Z,99.99
2019-03-23T01:50:19.474Z,99.99
2019-03-23T01:51:19.445Z,99.99
2019-03-23T01:52:19.415Z,99.99
2019-03-23T01:53:19.386Z,99.99
2019-03-23T01:54:19.352Z,99.99
2019-03-23T01:55:19.322Z,99.99
2019-03-23T01:56:19.295Z,99.99
2019-03-23T01:57:19.267Z,99.99
2019-03-23T01:58:19.232Z,99.99
2019-03-23T01:59:19.200Z,99.99
2019-03-23T02:00:19.172Z,99.99
2019-03-23T02:01:19.141Z,99.99
2019-03-23T02:02:19.110Z,99.99
2019-03-23T02:03:19.080Z,99.99
2019-03-23T02:04:19.048Z,99.99
2019-03-23T02:05:19.019Z,99.99
2019-03-23T02:06:18.988Z,99.99
2019-03-23T02:07:18.958Z,99.99
2019-03-23T02:08:18.927Z,99.99
2019-03-23T02:09:18.897Z,99.99
2019-03-23T02:10:18.867Z,99.99
2019-03-23T02:11:18.837Z,99.99
2019-03-23T02:12:18.807Z,99.99
2019-03-23T02:13:18.777Z,99.99
2019-03-23T02:14:18.745Z,99.99
2019-03-23T02:15:18.714Z,99.99
2019-03-23T02:16:18.685Z,99.99
2019-03-23T02:17:18.655Z,99.99
2019-03-23T02:18:18.629Z,99.99
2019-03-23T02:19:18.601Z,99.99
2019-03-23T02:20:18.562Z,99.99
2019-03-23T02:21:18.532Z,99.99
2019-03-23T02:22:18.506Z,99.99
2019-03-23T02:23:18.471Z,99.99
2019-03-23T02:24:18.442Z,99.99
2019-03-23T02:25:18.410Z,99.99
2019-03-23T02:26:18.379Z,99.99
2019-03-23T02:27:18.351Z,99.99
2019-03-23T02:28:18.327Z,99.99
2019-03-23T02:29:18.289Z,99.99
2019-03-23T02:30:18.262Z,99.99
2019-03-23T02:31:18.229Z,99.99
2019-03-23T02:32:18.198Z,99.99
2019-03-23T02:33:18.169Z,99.99
2019-03-23T02:34:18.138Z,99.99
2019-03-23T02:35:18.114Z,99.99
2019-03-23T02:36:18.077Z,99.99
2019-03-23T02:37:27.691Z,99.99
2019-03-23T02:38:18.017Z,99.99
2019-03-23T02:39:18.005Z,99.99
2019-03-23T02:40:17.960Z,99.99
2019-03-23T02:41:17.936Z,99.99
2019-03-23T02:42:17.892Z,99.99
2019-03-23T02:43:17.864Z,99.99
2019-03-23T02:44:17.837Z,99.99
2019-03-23T02:45:17.806Z,99.99
2019-03-23T02:46:17.778Z,99.99
2019-03-23T02:47:17.743Z,99.99
2019-03-23T02:48:17.721Z,99.99
2019-03-23T02:49:17.684Z,99.99
2019-03-23T02:50:17.653Z,99.99
2019-03-23T02:51:17.621Z,99.99
2019-03-23T02:52:17.591Z,99.99
2019-03-23T02:53:17.560Z,99.99
2019-03-23T02:54:17.530Z,99.99
2019-03-23T02:55:17.499Z,99.99
2019-03-23T02:56:17.470Z,99.99
2019-03-23T02:57:17.441Z,99.99
2019-03-23T02:58:17.407Z,99.99
2019-03-23T02:59:17.378Z,99.99
2019-03-23T03:00:17.348Z,99.99
2019-03-23T03:01:17.327Z,99.99
2019-03-23T03:02:17.288Z,99.99
2019-03-23T03:03:17.257Z,99.99
2019-03-23T03:04:17.237Z,99.99
2019-03-23T03:05:17.198Z,99.99
2019-03-23T03:06:17.166Z,99.99
2019-03-23T03:07:17.138Z,99.99
2019-03-23T03:08:17.107Z,99.99
2019-03-23T03:09:17.076Z,99.99
2019-03-23T03:10:17.045Z,99.99
2019-03-23T03:11:17.014Z,99.99
2019-03-23T03:12:16.985Z,99.99
2019-03-23T03:13:16.955Z,99.99
2019-03-23T03:14:16.922Z,99.99
2019-03-23T03:15:16.893Z,99.99
2019-03-23T03:16:16.863Z,99.99
2019-03-23T03:17:16.835Z,99.99
2019-03-23T03:18:16.805Z,99.99
2019-03-23T03:19:16.770Z,99.99
2019-03-23T03:20:16.740Z,99.99
2019-03-23T03:21:16.717Z,99.99
2019-03-23T03:22:16.693Z,99.99
2019-03-23T03:23:16.655Z,99.99
2019-03-23T03:24:16.620Z,99.99
2019-03-23T03:25:16.589Z,99.99
2019-03-23T03:26:16.569Z,99.99
2019-03-23T03:27:16.546Z,99.99
2019-03-23T03:28:16.497Z,99.99
2019-03-23T03:29:16.470Z,99.99
2019-03-23T03:30:16.461Z,99.99
2019-03-23T03:31:16.407Z,99.99
2019-03-23T03:32:16.377Z,99.99
2019-03-23T03:33:16.353Z,99.99
2019-03-23T03:34:16.315Z,99.99
2019-03-23T03:35:16.286Z,99.99
2019-03-23T03:36:16.254Z,99.99
2019-03-23T03:37:16.225Z,99.99
2019-03-23T03:38:16.195Z,99.99
2019-03-23T03:39:16.163Z,99.99
2019-03-23T03:40:16.137Z,99.99
2019-03-23T03:41:16.105Z,99.99
2019-03-23T03:42:16.077Z,99.99
2019-03-23T03:43:16.043Z,99.99
2019-03-23T03:44:16.013Z,99.99
2019-03-23T03:45:15.984Z,99.99
2019-03-23T03:46:15.956Z,99.99
2019-03-23T03:47:15.921Z,99.99
2019-03-23T03:48:15.893Z,99.99
2019-03-23T03:49:15.865Z,99.99
2019-03-23T03:50:15.831Z,99.99
2019-03-23T03:51:15.821Z,99.99
2019-03-23T03:52:15.770Z,99.99
2019-03-23T03:53:15.747Z,99.99
2019-03-23T03:54:15.712Z,99.99
2019-03-23T03:55:15.678Z,99.99
2019-03-23T03:56:15.649Z,99.99
2019-03-23T03:57:15.793Z,99.99
2019-03-23T03:58:15.590Z,99.99
2019-03-23T03:59:15.557Z,99.99
2019-03-23T04:00:15.527Z,99.99
2019-03-23T04:01:15.500Z,99.99
2019-03-23T04:02:15.467Z,99.99
2019-03-23T04:03:15.461Z,99.99
2019-03-23T04:04:15.424Z,99.99
2019-03-23T04:05:15.401Z,99.99
2019-03-23T04:06:15.349Z,99.99
2019-03-23T04:07:15.316Z,99.99
2019-03-23T04:08:15.285Z,99.99
2019-03-23T04:09:15.277Z,99.99
2019-03-23T04:10:15.227Z,99.99
2019-03-23T04:11:15.197Z,99.99
2019-03-23T04:12:15.170Z,99.99
2019-03-23T04:13:15.135Z,99.99
2019-03-23T04:14:15.106Z,99.99
2019-03-23T04:15:15.075Z,99.99
2019-03-23T04:16:15.046Z,99.99
2019-03-23T04:17:15.016Z,99.99
2019-03-23T04:18:14.998Z,99.99
2019-03-23T04:19:14.956Z,99.99
2019-03-23T04:20:14.973Z,99.99
2019-03-23T04:21:14.893Z,99.99
2019-03-23T04:22:14.863Z,99.99
2019-03-23T04:23:14.836Z,99.99
2019-03-23T04:24:14.805Z,99.99
2019-03-23T04:25:14.775Z,99.99
2019-03-23T04:26:14.745Z,99.99
2019-03-23T04:27:14.716Z,99.99
2019-03-23T04:28:14.684Z,99.99
2019-03-23T04:29:14.655Z,99.99
2019-03-23T04:30:14.629Z,99.99
2019-03-23T04:31:14.592Z,99.99
2019-03-23T04:32:14.561Z,99.99
2019-03-23T04:33:14.538Z,99.99
2019-03-23T04:34:14.502Z,99.99
2019-03-23T04:35:14.471Z,99.99
2019-03-23T04:36:14.440Z,99.99
2019-03-23T04:37:14.412Z,99.99
2019-03-23T04:38:22.728Z,99.99
2019-03-23T04:39:14.349Z,99.99
2019-03-23T04:40:14.323Z,99.99
2019-03-23T04:41:14.290Z,99.99
2019-03-23T04:42:14.259Z,99.99
2019-03-23T04:43:14.228Z,99.99
2019-03-23T04:44:14.198Z,99.99
2019-03-23T04:45:14.168Z,99.99
2019-03-23T04:46:14.137Z,99.99
2019-03-23T04:47:14.107Z,99.99
2019-03-23T04:48:14.077Z,99.99
2019-03-23T04:49:14.047Z,99.99
2019-03-23T04:50:14.017Z,99.99
2019-03-23T04:51:13.987Z,99.99
2019-03-23T04:52:13.956Z,99.99
2019-03-23T04:53:13.927Z,99.99
2019-03-23T04:54:13.894Z,99.99
2019-03-23T04:55:13.864Z,99.99
2019-03-23T04:56:13.836Z,99.99
2019-03-23T04:57:13.805Z,99.99
2019-03-23T04:58:13.811Z,99.99
2019-03-23T04:59:13.746Z,99.99
2019-03-23T05:00:13.713Z,99.99
2019-03-23T05:01:13.683Z,99.99
2019-03-23T05:02:13.652Z,99.99
2019-03-23T05:03:13.622Z,99.99
2019-03-23T05:04:13.591Z,99.99
2019-03-23T05:05:13.562Z,99.99
2019-03-23T05:06:13.531Z,99.99
2019-03-23T05:07:13.499Z,99.99
2019-03-23T05:08:13.468Z,99.99
2019-03-23T05:09:13.438Z,99.99
2019-03-23T05:10:13.407Z,99.99
2019-03-23T05:11:13.379Z,99.99
2019-03-23T05:12:13.348Z,99.99
2019-03-23T05:13:13.318Z,99.99
2019-03-23T05:14:13.284Z,99.99
2019-03-23T05:15:13.257Z,99.99
2019-03-23T05:16:13.225Z,99.99
2019-03-23T05:17:13.196Z,99.99
2019-03-23T05:18:13.163Z,99.99
2019-03-23T05:19:13.135Z,99.99
2019-03-23T05:20:13.104Z,99.99
2019-03-23T05:21:13.073Z,99.99
2019-03-23T05:22:13.043Z,99.99
2019-03-23T05:23:13.013Z,99.99
2019-03-23T05:24:12.983Z,99.99
2019-03-23T05:25:12.952Z,99.99
2019-03-23T05:26:12.925Z,99.99
2019-03-23T05:27:12.889Z,99.99
2019-03-23T05:28:12.861Z,99.99
2019-03-23T05:29:12.829Z,99.99
2019-03-23T05:30:12.799Z,99.99
2019-03-23T05:31:12.772Z,99.99
2019-03-23T05:32:12.737Z,99.99
2019-03-23T05:33:12.708Z,99.99
2019-03-23T05:34:12.676Z,99.99
2019-03-23T05:35:12.648Z,99.99
2019-03-23T05:36:12.617Z,99.99
2019-03-23T05:37:12.585Z,99.99
2019-03-23T05:38:12.555Z,99.99
2019-03-23T05:39:12.526Z,99.99
2019-03-23T05:40:12.499Z,99.99
2019-03-23T05:41:12.463Z,99.99
2019-03-23T05:42:12.433Z,99.99
2019-03-23T05:43:12.404Z,99.99
2019-03-23T05:44:12.379Z,99.99
2019-03-23T05:45:12.343Z,99.99
2019-03-23T05:46:12.313Z,99.99
2019-03-23T05:47:12.282Z,99.99
2019-03-23T05:48:12.251Z,99.99
2019-03-23T05:49:12.222Z,99.99
2019-03-23T05:50:12.195Z,99.99
2019-03-23T05:51:12.162Z,99.99
2019-03-23T05:52:12.130Z,99.99
2019-03-23T05:53:12.102Z,99.99
2019-03-23T05:54:12.070Z,99.99
2019-03-23T05:55:12.040Z,99.99
2019-03-23T05:56:12.014Z,99.99
2019-03-23T05:57:11.981Z,99.99
2019-03-23T05:58:11.949Z,99.99
2019-03-23T05:59:11.920Z,99.99
2019-03-23T06:00:11.889Z,99.99
2019-03-23T06:01:11.862Z,99.99
2019-03-23T06:02:11.829Z,99.99
2019-03-23T06:03:11.800Z,99.99
2019-03-23T06:04:11.771Z,99.99
2019-03-23T06:05:11.742Z,99.99
2019-03-23T06:06:11.709Z,99.99
2019-03-23T06:07:11.680Z,99.99
2019-03-23T06:08:11.648Z,99.99
2019-03-23T06:09:11.619Z,99.99
2019-03-23T06:10:11.592Z,99.99
2019-03-23T06:11:11.560Z,99.99
2019-03-23T06:12:11.530Z,99.99
2019-03-23T06:13:11.500Z,99.99
2019-03-23T06:14:11.471Z,99.99
2019-03-23T06:15:11.441Z,99.99
2019-03-23T06:16:11.409Z,99.99
2019-03-23T06:17:11.381Z,99.99
2019-03-23T06:18:11.349Z,99.99
2019-03-23T06:19:11.320Z,99.99
2019-03-23T06:20:11.292Z,99.99
2019-03-23T06:21:11.262Z,99.99
2019-03-23T06:22:11.231Z,99.99
2019-03-23T06:23:11.203Z,99.99
2019-03-23T06:24:11.173Z,99.99
2019-03-23T06:25:11.147Z,99.99
2019-03-23T06:26:11.114Z,99.99
2019-03-23T06:27:11.085Z,99.99
2019-03-23T06:28:11.056Z,99.99
2019-03-23T06:29:11.027Z,99.99
2019-03-23T06:30:10.996Z,99.99
2019-03-23T06:31:10.968Z,99.99
2019-03-23T06:32:10.939Z,99.99
2019-03-23T06:33:10.916Z,99.99
2019-03-23T06:34:10.882Z,99.99
2019-03-23T06:35:10.852Z,99.99
2019-03-23T06:36:10.823Z,99.99
2019-03-23T06:37:10.793Z,99.99
2019-03-23T06:38:10.764Z,99.99
2019-03-23T06:39:10.734Z,99.99
2019-03-23T06:40:10.706Z,99.99
2019-03-23T06:41:10.677Z,99.99
2019-03-23T06:42:10.650Z,99.99
2019-03-23T06:43:10.619Z,99.99
2019-03-23T06:44:10.592Z,99.99
2019-03-23T06:45:10.563Z,99.99
2019-03-23T06:46:10.533Z,99.99
2019-03-23T06:47:10.504Z,99.99
2019-03-23T06:48:10.476Z,99.99
2019-03-23T06:49:10.448Z,99.99
2019-03-23T06:50:10.418Z,99.99
2019-03-23T06:51:10.392Z,99.99
2019-03-23T06:52:10.362Z,99.99
2019-03-23T06:53:10.334Z,99.99
2019-03-23T06:54:10.304Z,99.99
2019-03-23T06:55:10.277Z,99.99
2019-03-23T06:56:10.248Z,99.99
2019-03-23T06:57:10.219Z,99.99
2019-03-23T06:58:10.190Z,99.99
2019-03-23T06:59:10.164Z,99.99
2019-03-23T07:00:10.135Z,99.99
2019-03-23T07:01:10.106Z,99.99
2019-03-23T07:02:10.077Z,99.99
2019-03-23T07:03:10.050Z,99.99
2019-03-23T07:04:10.022Z,99.99
2019-03-23T07:05:09.995Z,99.99
2019-03-23T07:06:09.966Z,99.99
2019-03-23T07:07:09.938Z,99.99
2019-03-23T07:08:09.909Z,99.99
2019-03-23T07:09:16.113Z,99.99
2019-03-23T07:10:09.852Z,99.99
2019-03-23T07:11:09.826Z,99.99
2019-03-23T07:12:09.796Z,99.99
2019-03-23T07:13:09.769Z,99.99
2019-03-23T07:14:09.740Z,99.99
2019-03-23T07:15:19.536Z,99.99
2019-03-23T07:16:09.682Z,99.99
2019-03-23T07:17:09.656Z,99.99
2019-03-23T07:18:09.625Z,99.99
2019-03-23T07:19:09.595Z,99.99
2019-03-23T07:20:09.568Z,99.99
2019-03-23T07:21:09.538Z,99.99
2019-03-23T07:22:09.509Z,99.99
2019-03-23T07:23:09.480Z,99.99
2019-03-23T07:24:09.452Z,99.99
2019-03-23T07:25:09.424Z,99.99
2019-03-23T07:26:09.394Z,99.99
2019-03-23T07:27:09.366Z,99.99
2019-03-23T07:28:09.338Z,99.99
2019-03-23T07:29:09.310Z,99.99
2019-03-23T07:30:09.289Z,99.99
2019-03-23T07:31:09.252Z,99.99
2019-03-23T07:32:09.224Z,99.99
2019-03-23T07:33:09.194Z,99.99
2019-03-23T07:34:09.166Z,99.99
2019-03-23T07:35:09.137Z,99.99
2019-03-23T07:36:09.109Z,99.99
2019-03-23T07:37:09.080Z,99.99
2019-03-23T07:38:09.050Z,99.99
2019-03-23T07:39:09.025Z,99.99
2019-03-23T07:40:08.995Z,99.99
2019-03-23T07:41:08.965Z,99.99
2019-03-23T07:42:08.936Z,99.99
2019-03-23T07:43:08.909Z,99.99
2019-03-23T07:44:08.880Z,99.99
2019-03-23T07:45:08.854Z,99.99
2019-03-23T07:46:08.823Z,99.99
2019-03-23T07:47:08.796Z,99.99
2019-03-23T07:48:08.765Z,99.99
2019-03-23T07:49:08.737Z,99.99
2019-03-23T07:50:08.708Z,99.99
2019-03-23T07:51:08.681Z,99.99
2019-03-23T07:52:08.653Z,99.99
2019-03-23T07:53:08.623Z,99.99
2019-03-23T07:54:08.595Z,99.99
2019-03-23T07:55:08.566Z,99.99
2019-03-23T07:56:08.538Z,99.99
2019-03-23T07:57:08.509Z,99.99
2019-03-23T07:58:08.479Z,99.99
2019-03-23T07:59:08.452Z,99.99
2019-03-23T08:00:08.423Z,99.99
2019-03-23T08:01:08.395Z,99.99
2019-03-23T08:02:08.364Z,99.99
2019-03-23T08:03:08.336Z,99.99
2019-03-23T08:04:08.310Z,99.99
2019-03-23T08:05:08.279Z,99.99
2019-03-23T08:06:08.249Z,99.99
2019-03-23T08:07:08.222Z,99.99
2019-03-23T08:08:08.193Z,99.99
2019-03-23T08:09:08.167Z,99.99
2019-03-23T08:10:08.139Z,99.99
2019-03-23T08:11:08.107Z,99.99
2019-03-23T08:12:08.081Z,99.99
2019-03-23T08:13:08.054Z,99.99
2019-03-23T08:14:08.021Z,99.99
2019-03-23T08:15:07.995Z,99.99
2019-03-23T08:16:07.968Z,99.99
2019-03-23T08:17:07.938Z,99.99
2019-03-23T08:18:07.913Z,99.99
2019-03-23T08:19:07.881Z,99.99
2019-03-23T08:20:07.852Z,99.99
2019-03-23T08:21:07.823Z,99.99
2019-03-23T08:22:07.797Z,99.99
2019-03-23T08:23:07.766Z,99.99
2019-03-23T08:24:07.737Z,99.99
2019-03-23T08:25:07.707Z,99.99
2019-03-23T08:26:07.679Z,99.99
2019-03-23T08:27:07.650Z,99.99
2019-03-23T08:28:07.623Z,99.99
2019-03-23T08:29:07.593Z,99.99
2019-03-23T08:30:07.566Z,99.99
2019-03-23T08:31:07.538Z,99.99
2019-03-23T08:32:07.507Z,99.99
2019-03-23T08:33:07.480Z,99.99
2019-03-23T08:34:07.449Z,99.99
2019-03-23T08:35:07.421Z,99.99
2019-03-23T08:36:07.393Z,99.99
2019-03-23T08:37:07.365Z,99.99
2019-03-23T08:38:07.335Z,99.99
2019-03-23T08:39:07.315Z,99.99
2019-03-23T08:40:07.279Z,99.99
2019-03-23T08:41:07.252Z,99.99
2019-03-23T08:42:07.221Z,99.99
2019-03-23T08:43:07.244Z,99.99
2019-03-23T08:44:07.165Z,99.99
2019-03-23T08:45:07.137Z,99.99
2019-03-23T08:46:07.107Z,99.99
2019-03-23T08:47:07.080Z,99.99
2019-03-23T08:48:07.051Z,99.99
2019-03-23T08:49:07.023Z,99.99
2019-03-23T08:50:06.997Z,99.99
2019-03-23T08:51:06.964Z,99.99
2019-03-23T08:52:06.939Z,99.99
2019-03-23T08:53:06.909Z,99.99
2019-03-23T08:54:06.879Z,99.99
2019-03-23T08:55:06.851Z,99.99
2019-03-23T08:56:06.825Z,99.99
2019-03-23T08:57:06.796Z,99.99
2019-03-23T08:58:06.768Z,99.99
2019-03-23T08:59:06.740Z,99.99
2019-03-23T09:00:06.710Z,99.99
2019-03-23T09:01:06.682Z,99.99
2019-03-23T09:02:06.654Z,99.99
2019-03-23T09:03:06.626Z,99.99
2019-03-23T09:04:06.598Z,99.99
2019-03-23T09:05:06.573Z,99.99
2019-03-23T09:06:06.541Z,99.99
2019-03-23T09:07:06.512Z,99.99
2019-03-23T09:08:06.486Z,99.99
2019-03-23T09:09:06.467Z,99.99
2019-03-23T09:10:06.432Z,99.99
2019-03-23T09:11:06.402Z,99.99
2019-03-23T09:12:06.374Z,99.99
2019-03-23T09:13:06.354Z,99.99
2019-03-23T09:14:06.317Z,99.99
2019-03-23T09:15:06.290Z,99.99
2019-03-23T09:16:06.263Z,99.99
2019-03-23T09:17:06.236Z,99.99
2019-03-23T09:18:06.209Z,99.99
2019-03-23T09:19:06.179Z,99.99
2019-03-23T09:20:06.151Z,99.99
2019-03-23T09:21:06.164Z,99.99
2019-03-23T09:22:06.095Z,99.99
2019-03-23T09:23:06.076Z,99.99
2019-03-23T09:24:06.041Z,99.99
2019-03-23T09:25:06.014Z,99.99
2019-03-23T09:26:05.985Z,99.99
2019-03-23T09:27:05.958Z,99.99
2019-03-23T09:28:05.929Z,99.99
2019-03-23T09:29:05.903Z,99.99
2019-03-23T09:30:05.888Z,99.99
2019-03-23T09:31:05.849Z,99.99
2019-03-23T09:32:05.822Z,99.99
2019-03-23T09:33:05.825Z,99.99
2019-03-23T09:34:05.767Z,99.99
2019-03-23T09:35:05.737Z,99.99
2019-03-23T09:36:05.711Z,99.99
2019-03-23T09:37:05.686Z,99.99
2019-03-23T09:38:05.654Z,99.99
2019-03-23T09:39:05.628Z,99.99
2019-03-23T09:40:10.844Z,99.99
2019-03-23T09:41:05.573Z,99.99
2019-03-23T09:42:07.090Z,99.99
2019-03-23T09:43:05.519Z,99.99
2019-03-23T09:44:05.495Z,99.99
2019-03-23T09:45:05.465Z,99.99
2019-03-23T09:46:05.444Z,99.99
2019-03-23T09:47:05.410Z,99.99
2019-03-23T09:48:05.382Z,99.99
2019-03-23T09:49:05.357Z,99.99
2019-03-23T09:50:05.329Z,99.99
2019-03-23T09:51:05.302Z,99.99
2019-03-23T09:52:05.273Z,99.99
2019-03-23T09:53:05.248Z,99.99
2019-03-23T09:54:05.220Z,99.99
2019-03-23T09:55:05.195Z,99.99
2019-03-23T09:56:05.166Z,99.99
2019-03-23T09:57:05.139Z,99.99
2019-03-23T09:58:05.111Z,99.99
2019-03-23T09:59:05.086Z,99.99
2019-03-23T10:00:05.060Z,99.99
2019-03-23T10:01:05.031Z,99.99
2019-03-23T10:02:05.005Z,99.99
2019-03-23T10:03:04.980Z,99.99
2019-03-23T10:04:04.952Z,99.99
2019-03-23T10:05:04.924Z,99.99
2019-03-23T10:06:05.971Z,99.99
2019-03-23T10:07:04.871Z,99.99
2019-03-23T10:08:04.844Z,99.99
2019-03-23T10:09:04.819Z,99.99
2019-03-23T10:10:04.791Z,99.99
2019-03-23T10:11:04.764Z,99.99
2019-03-23T10:12:04.737Z,99.99
2019-03-23T10:13:04.710Z,99.99
2019-03-23T10:14:04.685Z,99.99
2019-03-23T10:15:04.662Z,99.99
2019-03-23T10:16:04.631Z,99.99
2019-03-23T10:17:04.606Z,99.99
2019-03-23T10:18:04.579Z,99.99
2019-03-23T10:19:04.553Z,99.99
2019-03-23T10:20:04.529Z,99.99
2019-03-23T10:21:04.502Z,99.99
2019-03-23T10:22:04.475Z,99.99
2019-03-23T10:23:04.447Z,99.99
2019-03-23T10:24:04.424Z,99.99
2019-03-23T10:25:04.399Z,99.99
2019-03-23T10:26:04.370Z,99.99
2019-03-23T10:27:04.345Z,99.99
2019-03-23T10:28:04.319Z,99.99
2019-03-23T10:29:04.293Z,99.99
2019-03-23T10:30:04.266Z,99.99
2019-03-23T10:31:04.242Z,99.99
2019-03-23T10:32:04.215Z,99.99
2019-03-23T10:33:04.191Z,99.99
2019-03-23T10:34:04.165Z,99.99
2019-03-23T10:35:04.140Z,99.99
2019-03-23T10:36:04.113Z,99.99
2019-03-23T10:37:04.092Z,99.99
2019-03-23T10:38:04.062Z,99.99
2019-03-23T10:39:04.037Z,99.99
2019-03-23T10:40:04.011Z,99.99
2019-03-23T10:41:03.987Z,99.99
2019-03-23T10:42:03.959Z,99.99
2019-03-23T10:43:03.934Z,99.99
2019-03-23T10:44:03.910Z,99.99
2019-03-23T10:45:03.883Z,99.99
2019-03-23T10:46:03.910Z,99.99
2019-03-23T10:47:03.832Z,99.99
2019-03-23T10:48:03.806Z,99.99
2019-03-23T10:49:03.783Z,99.99
2019-03-23T10:50:03.754Z,99.99
2019-03-23T10:51:03.730Z,99.99
2019-03-23T10:52:03.708Z,99.99
2019-03-23T10:53:03.682Z,99.99
2019-03-23T10:54:04.151Z,99.99
2019-03-23T10:55:03.629Z,99.99
2019-03-23T10:56:03.603Z,99.99
2019-03-23T10:57:03.579Z,99.99
2019-03-23T10:58:03.555Z,99.99
2019-03-23T10:59:03.526Z,99.99
2019-03-23T11:00:03.503Z,99.99
2019-03-23T11:01:03.477Z,99.99
2019-03-23T11:02:03.451Z,99.99
2019-03-23T11:03:03.429Z,99.99
2019-03-23T11:04:03.400Z,99.99
2019-03-23T11:05:03.376Z,99.99
2019-03-23T11:06:03.351Z,99.99
2019-03-23T11:07:03.326Z,99.99
2019-03-23T11:08:03.301Z,99.99
2019-03-23T11:09:03.277Z,99.99
2019-03-23T11:10:03.254Z,99.99
2019-03-23T11:11:03.229Z,99.99
2019-03-23T11:12:03.256Z,99.99
2019-03-23T11:13:03.178Z,99.99
2019-03-23T11:14:03.153Z,99.99
2019-03-23T11:15:03.127Z,99.99
2019-03-23T11:16:03.105Z,99.99
2019-03-23T11:17:03.078Z,99.99
2019-03-23T11:18:03.055Z,99.99
2019-03-23T11:19:09.578Z,99.99
2019-03-23T11:20:03.006Z,99.99
2019-03-23T11:21:02.983Z,99.99
2019-03-23T11:22:02.955Z,99.99
2019-03-23T11:23:02.933Z,99.99
2019-03-23T11:24:02.909Z,99.99
2019-03-23T11:25:02.885Z,99.99
2019-03-23T11:26:02.859Z,99.99
2019-03-23T11:27:02.835Z,99.99
2019-03-23T11:28:02.812Z,99.99
2019-03-23T11:29:02.794Z,99.99
2019-03-23T11:30:02.763Z,99.99
2019-03-23T11:31:02.738Z,99.99
2019-03-23T11:32:02.714Z,99.99
2019-03-23T11:33:02.708Z,99.99
2019-03-23T11:34:02.665Z,99.99
2019-03-23T11:35:02.718Z,99.99
2019-03-23T11:36:02.621Z,99.99
2019-03-23T11:37:02.593Z,99.99
2019-03-23T11:38:02.682Z,99.99
2019-03-23T11:39:02.547Z,99.99
2019-03-23T11:40:02.522Z,99.99
2019-03-23T11:41:02.499Z,99.99
2019-03-23T11:42:02.472Z,99.99
2019-03-23T11:43:02.452Z,99.99
2019-03-23T11:44:02.428Z,99.99
2019-03-23T11:45:02.410Z,99.99
2019-03-23T11:46:02.379Z,99.99
2019-03-23T11:47:02.354Z,99.99
2019-03-23T11:48:02.383Z,97.04
2019-03-23T11:49:02.308Z,92.83
2019-03-23T11:50:02.283Z,91.39
2019-03-23T11:51:02.259Z,88.28
2019-03-23T11:52:02.236Z,86.17
2019-03-23T11:53:02.214Z,86.07
2019-03-23T11:54:02.190Z,82.94
2019-03-23T11:55:02.168Z,80.97
2019-03-23T11:56:02.143Z,78.61
2019-03-23T11:57:02.134Z,77.17
2019-03-23T11:58:02.097Z,76.15
2019-03-23T11:59:02.073Z,74.94
2019-03-23T12:00:02.056Z,74.21
2019-03-23T12:01:02.029Z,71.23
2019-03-23T12:02:02.005Z,71.00
2019-03-23T12:03:01.985Z,71.96
2019-03-23T12:04:01.970Z,73.69
2019-03-23T12:05:01.957Z,72.44
2019-03-23T12:06:01.917Z,71.93
2019-03-23T12:07:01.896Z,71.77
2019-03-23T12:08:01.873Z,71.77
2019-03-23T12:09:01.853Z,71.77
2019-03-23T12:10:01.827Z,73.08
2019-03-23T12:11:03.084Z,73.02
2019-03-23T12:12:01.782Z,71.96
2019-03-23T12:13:01.761Z,71.04
2019-03-23T12:14:01.739Z,71.29
2019-03-23T12:15:01.720Z,70.62
2019-03-23T12:16:01.696Z,72.44
2019-03-23T12:17:01.673Z,70.94
2019-03-23T12:18:01.651Z,70.46
2019-03-23T12:19:01.630Z,72.06
2019-03-23T12:20:01.611Z,70.65
2019-03-23T12:21:01.587Z,70.88
2019-03-23T12:22:01.565Z,69.34
2019-03-23T12:23:01.545Z,68.48
2019-03-23T12:24:01.521Z,69.46
2019-03-23T12:25:01.511Z,70.68
2019-03-23T12:26:01.478Z,72.66
2019-03-23T12:27:01.457Z,73.58
2019-03-23T12:28:01.488Z,75.31
2019-03-23T12:29:01.413Z,76.46
2019-03-23T12:30:07.015Z,76.17
2019-03-23T12:31:01.372Z,75.50
2019-03-23T12:32:01.347Z,76.32
2019-03-23T12:33:01.324Z,77.09
2019-03-23T12:34:01.303Z,76.40
2019-03-23T12:35:01.289Z,74.33
2019-03-23T12:36:01.258Z,75.45
2019-03-23T12:37:02.487Z,75.31
2019-03-23T12:38:01.215Z,73.46
2019-03-23T12:39:01.192Z,73.08
2019-03-23T12:40:01.169Z,72.50
2019-03-23T12:41:10.154Z,73.08
2019-03-23T12:42:01.125Z,72.79
2019-03-23T12:43:01.103Z,72.73
2019-03-23T12:44:01.081Z,70.30
2019-03-23T12:45:01.061Z,67.51
2019-03-23T12:46:01.035Z,69.21
2019-03-23T12:47:01.014Z,70.46
2019-03-23T12:48:00.993Z,69.91
2019-03-23T12:49:00.971Z,72.41
2019-03-23T12:50:00.950Z,72.60
2019-03-23T12:51:00.927Z,73.04
2019-03-23T12:52:00.903Z,73.43